Salas De Los Infantes, Spain
Current Conditions -  °F | °C
As of 6:00 PM on Thursday 23 Oct 2014 (Local Time) from LEBG Reporting Station
Clear Clear  
Wind Chill: 70°   Ceiling: Unl
Heat Index: 70°   Visibility: 6mi
Dew Point: 39°   Wind: 12mph
Humidity: 33%   Direction: 350°N
Pressure: 30.27"   Gusts: NA
Location:  42.02°N, 3.29°W
Report Text: LEBG 231600Z 35010KT 320V030 CAVOK 21/04 Q1025
Loading
Personal Weather Stations






























Interactive Weather Map
Tropical Storm Tracking
New forecast layout! Learn more

10-Day Weather Forecast

Advertisements
Track Severe Weather on mobile